Terminal Aerodrome Forecast
Issued by NWS

Home | Current Version | Previous Version | Text Only | Print | Product List | Glossary Off
Versions: 1 2 3 4 5 6 7 8 9 10 11 12 13 14 15

160
FTUS43 KBIS 251136
TAFMOT
TAF
KMOT 251136Z 2512/2612 15005KT P6SM FEW120
     FM252000 29007KT P6SM FEW250
     FM260100 03006KT P6SM FEW250=

USA.gov is the U.S. government's official web portal to all federal, state and local government web resources and services.